Weather at Shuswap Regional Airport

Public forecast

Using degrees Celsius for public forecast. Weather courtesy of forecast.io.

Closest aviation weather report (METAR) to Shuswap Regional Airport

Closest report is Revelstoke Airport, 43.0 nm (79.7 km) ENE. Retrieved 2022/05/17 23:00 UTC (23 minutes ago):

CYRV 172300Z AUTO 36012KT 9SM BKN071 BKN087 14/01 A3012 RMK SLP210 DENSITY ALT 1500FT

Closest aviation forecast (TAF) to Shuswap Regional Airport

Closest forecast is Kelowna International Airport, 44.0 nm (81.5 km) S. Retrieved 2022/05/17 19:42 UTC (4 hours ago):

TAF TAF CYLW 171840Z 1719/1807 20008KT P6SM BKN140 OVC220 FM172000 20010G20KT P6SM SCT080 BKN140 FM180300 22008KT P6SM SCT080 FM180600 VRB03KT P6SM FEW080 BKN200 RMK FCST BASED ON AUTO OBS NXT FCST BY 180100Z